createdAt,value
2022-12-24T00:00:06.522Z,9.7
2022-12-24T00:01:05.946Z,9.7
2022-12-24T00:02:06.878Z,9.7
2022-12-24T00:03:06.677Z,9.7
2022-12-24T00:04:05.785Z,9.7
2022-12-24T00:05:06.026Z,9.7
2022-12-24T00:06:06.223Z,9.6
2022-12-24T00:07:05.868Z,9.6
2022-12-24T00:08:04.855Z,9.6
2022-12-24T00:09:05.728Z,9.6
2022-12-24T00:10:06.087Z,10
2022-12-24T00:11:06.110Z,10
2022-12-24T00:12:06.167Z,10
2022-12-24T00:13:05.996Z,9.6
2022-12-24T00:14:05.697Z,9.6
2022-12-24T00:15:06.247Z,9.6
2022-12-24T00:16:05.505Z,9.6
2022-12-24T00:17:06.368Z,9.6
2022-12-24T00:18:05.918Z,9.6
2022-12-24T00:19:06.467Z,9.6
2022-12-24T00:20:06.178Z,9.6
2022-12-24T00:21:05.524Z,9.5
2022-12-24T00:22:05.889Z,9.5
2022-12-24T00:23:06.535Z,9.5
2022-12-24T00:24:05.829Z,9.5
2022-12-24T00:25:06.090Z,9.5
2022-12-24T00:26:06.342Z,9.5
2022-12-24T00:27:05.870Z,9.6
2022-12-24T00:28:06.399Z,9.6
2022-12-24T00:29:06.146Z,9.6
2022-12-24T00:30:05.726Z,9.5
2022-12-24T00:31:06.707Z,9.5
2022-12-24T00:32:06.117Z,9.5
2022-12-24T00:33:05.618Z,9.5
2022-12-24T00:34:05.984Z,9.5
2022-12-24T00:35:06.697Z,9.5
2022-12-24T00:36:05.765Z,9.5
2022-12-24T00:37:06.305Z,9.5
2022-12-24T00:38:06.320Z,9.5
2022-12-24T00:39:06.035Z,9.5
2022-12-24T00:40:05.804Z,9.4
2022-12-24T00:41:06.342Z,9.4
2022-12-24T00:42:05.711Z,9.4
2022-12-24T00:43:06.367Z,9.4
2022-12-24T00:44:05.900Z,9.4
2022-12-24T00:45:06.193Z,9.4
2022-12-24T00:46:04.976Z,10
2022-12-24T00:47:14.396Z,10
2022-12-24T00:48:06.289Z,9.4
2022-12-24T00:49:06.319Z,9.4
2022-12-24T00:50:06.197Z,10
2022-12-24T00:51:06.112Z,9.4
2022-12-24T00:52:06.221Z,9.4
2022-12-24T00:53:06.154Z,9.4
2022-12-24T00:54:05.713Z,9.4
2022-12-24T00:55:06.289Z,9.4
2022-12-24T00:56:05.815Z,9.4
2022-12-24T00:57:06.348Z,9.4
2022-12-24T00:58:05.310Z,10
2022-12-24T00:59:06.071Z,9.3
2022-12-24T01:00:06.572Z,9.4
2022-12-24T01:01:06.438Z,9.4
2022-12-24T01:02:06.305Z,9.3
2022-12-24T01:03:06.998Z,9.3
2022-12-24T01:04:05.778Z,9.3
2022-12-24T01:05:06.519Z,9.3
2022-12-24T01:06:06.343Z,9.4
2022-12-24T01:07:05.987Z,9.3
2022-12-24T01:08:06.517Z,9.3
2022-12-24T01:09:05.968Z,9.3
2022-12-24T01:10:05.868Z,10
2022-12-24T01:11:06.489Z,9.3
2022-12-24T01:12:06.013Z,9.3
2022-12-24T01:13:06.204Z,9.3
2022-12-24T01:14:05.758Z,9.3
2022-12-24T01:15:06.102Z,9.2
2022-12-24T01:16:06.166Z,9.2
2022-12-24T01:17:06.084Z,9.3
2022-12-24T01:18:05.660Z,9.2
2022-12-24T01:19:06.239Z,9.3
2022-12-24T01:20:05.828Z,9.2
2022-12-24T01:21:06.259Z,9.2
2022-12-24T01:22:05.799Z,9.2
2022-12-24T01:23:06.232Z,9.2
2022-12-24T01:24:05.938Z,9.2
2022-12-24T01:25:06.040Z,9.2
2022-12-24T01:26:06.000Z,10
2022-12-24T01:27:05.903Z,9.2
2022-12-24T01:28:06.438Z,9.2
2022-12-24T01:29:06.387Z,9.2
2022-12-24T01:30:06.104Z,10
2022-12-24T01:31:06.034Z,9.2
2022-12-24T01:32:06.431Z,9.2
2022-12-24T01:33:06.038Z,10
2022-12-24T01:34:05.616Z,9.2
2022-12-24T01:35:06.759Z,9.2
2022-12-24T01:36:05.992Z,9.2
2022-12-24T01:37:05.141Z,9.2
2022-12-24T01:38:04.875Z,9.2
2022-12-24T01:39:06.258Z,9.2
2022-12-24T01:40:06.551Z,9.2
2022-12-24T01:41:06.174Z,9.2
2022-12-24T01:42:05.666Z,9.2
2022-12-24T01:43:05.797Z,9.2
2022-12-24T01:44:05.884Z,9.2
2022-12-24T01:45:05.965Z,10
2022-12-24T01:46:06.820Z,10
2022-12-24T01:47:06.057Z,9.2
2022-12-24T01:48:05.591Z,9.2
2022-12-24T01:49:06.325Z,10
2022-12-24T01:50:05.869Z,10
2022-12-24T01:51:06.255Z,9.2
2022-12-24T01:52:05.647Z,9.2
2022-12-24T01:53:06.486Z,9.2
2022-12-24T01:54:06.084Z,9.2
2022-12-24T01:55:05.892Z,9.2
2022-12-24T01:56:05.790Z,9.2
2022-12-24T01:57:06.102Z,10
2022-12-24T01:58:06.613Z,9.2
2022-12-24T01:59:06.102Z,9.2
2022-12-24T02:00:05.612Z,9.2
2022-12-24T02:01:05.487Z,9.2
2022-12-24T02:02:05.024Z,9.2
2022-12-24T02:03:06.523Z,9.2
2022-12-24T02:04:06.240Z,9.1
2022-12-24T02:05:06.285Z,9.2
2022-12-24T02:06:06.318Z,9.2
2022-12-24T02:07:05.551Z,9.2
2022-12-24T02:08:06.216Z,9.2
2022-12-24T02:09:06.108Z,10
2022-12-24T02:10:05.889Z,10
2022-12-24T02:11:05.876Z,9.2
2022-12-24T02:12:05.921Z,9.1
2022-12-24T02:13:05.071Z,9.2
2022-12-24T02:14:06.498Z,9.1
2022-12-24T02:15:06.162Z,9.1
2022-12-24T02:16:06.498Z,9.1
2022-12-24T02:17:06.031Z,9.1
2022-12-24T02:18:06.266Z,9.1
2022-12-24T02:19:05.719Z,9.1
2022-12-24T02:20:06.442Z,9.1
2022-12-24T02:21:05.968Z,9
2022-12-24T02:22:06.330Z,9.1
2022-12-24T02:23:05.723Z,9.1
2022-12-24T02:24:04.963Z,9.1
2022-12-24T02:25:06.353Z,9.1
2022-12-24T02:26:06.258Z,9.2
2022-12-24T02:27:05.880Z,9.1
2022-12-24T02:28:05.813Z,9.1
2022-12-24T02:29:05.590Z,9.1
2022-12-24T02:30:05.896Z,9.1
2022-12-24T02:31:06.411Z,9.1
2022-12-24T02:32:05.698Z,9.1
2022-12-24T02:33:06.527Z,9.1
2022-12-24T02:34:05.940Z,9.1
2022-12-24T02:35:06.240Z,9.1
2022-12-24T02:36:05.709Z,9.1
2022-12-24T02:37:05.425Z,9.1
2022-12-24T02:38:06.437Z,9.1
2022-12-24T02:39:05.935Z,9.1
2022-12-24T02:40:08.029Z,9.2
2022-12-24T02:41:06.284Z,9
2022-12-24T02:42:05.809Z,9.1
2022-12-24T02:43:06.162Z,9.1
2022-12-24T02:44:05.717Z,9
2022-12-24T02:45:06.285Z,9
2022-12-24T02:46:06.221Z,9
2022-12-24T02:47:06.106Z,9.1
2022-12-24T02:48:06.481Z,9.1
2022-12-24T02:49:05.950Z,9.1
2022-12-24T02:50:06.475Z,9
2022-12-24T02:51:05.925Z,9.1
2022-12-24T02:52:06.711Z,9.1
2022-12-24T02:53:05.896Z,9.1
2022-12-24T02:54:05.940Z,9.1
2022-12-24T02:55:05.755Z,9.1
2022-12-24T02:56:06.278Z,9.1
2022-12-24T02:57:06.477Z,9.1
2022-12-24T02:58:06.091Z,9.1
2022-12-24T02:59:06.239Z,9.1
2022-12-24T03:00:05.818Z,9.1
2022-12-24T03:01:05.332Z,9
2022-12-24T03:02:06.813Z,9
2022-12-24T03:03:06.128Z,9
2022-12-24T03:04:05.774Z,9
2022-12-24T03:05:06.362Z,9
2022-12-24T03:06:06.710Z,9
2022-12-24T03:07:06.234Z,9
2022-12-24T03:08:05.701Z,9
2022-12-24T03:09:06.294Z,9
2022-12-24T03:10:06.419Z,9
2022-12-24T03:11:06.140Z,9
2022-12-24T03:12:06.541Z,9
2022-12-24T03:13:06.080Z,9
2022-12-24T03:14:05.698Z,9
2022-12-24T03:15:05.858Z,8.9
2022-12-24T03:16:06.127Z,8.9
2022-12-24T03:17:06.365Z,9
2022-12-24T03:18:05.746Z,8.9
2022-12-24T03:19:06.269Z,8.9
2022-12-24T03:20:05.787Z,8.9
2022-12-24T03:21:05.802Z,8.9
2022-12-24T03:22:06.314Z,8.8
2022-12-24T03:23:05.993Z,8.8
2022-12-24T03:24:06.513Z,8.8
2022-12-24T03:25:05.874Z,8.9
2022-12-24T03:26:05.622Z,8.9
2022-12-24T03:27:06.181Z,8.9
2022-12-24T03:28:05.824Z,8.9
2022-12-24T03:29:05.884Z,8.8
2022-12-24T03:30:06.508Z,8.8
2022-12-24T03:31:05.886Z,9
2022-12-24T03:32:06.451Z,9
2022-12-24T03:33:05.721Z,8.8
2022-12-24T03:34:05.993Z,8.8
2022-12-24T03:35:06.543Z,8.8
2022-12-24T03:36:06.162Z,8.8
2022-12-24T03:37:05.586Z,9
2022-12-24T03:38:05.522Z,8.7
2022-12-24T03:39:06.421Z,8.8
2022-12-24T03:40:06.498Z,8.7
2022-12-24T03:41:06.412Z,8.7
2022-12-24T03:42:05.938Z,8.7
2022-12-24T03:43:06.390Z,8.7
2022-12-24T03:44:05.699Z,9
2022-12-24T03:45:05.678Z,8.6
2022-12-24T03:46:05.824Z,8.6
2022-12-24T03:47:06.325Z,8.6
2022-12-24T03:48:05.725Z,8.6
2022-12-24T03:49:06.265Z,8.6
2022-12-24T03:50:05.989Z,8.6
2022-12-24T03:51:06.231Z,8.7
2022-12-24T03:52:05.795Z,8.7
2022-12-24T03:53:05.797Z,8.6
2022-12-24T03:54:06.255Z,8.6
2022-12-24T03:55:06.544Z,8.6
2022-12-24T03:56:06.080Z,8.7
2022-12-24T03:57:05.738Z,8.7
2022-12-24T03:58:06.430Z,8.7
2022-12-24T03:59:06.070Z,8.7
2022-12-24T04:00:06.538Z,8.7
2022-12-24T04:01:06.651Z,8.7
2022-12-24T04:02:06.940Z,8.7
2022-12-24T04:03:05.988Z,8.7
2022-12-24T04:04:06.230Z,8.7
2022-12-24T04:05:05.887Z,8.7
2022-12-24T04:06:06.367Z,8.7
2022-12-24T04:07:06.483Z,8.7
2022-12-24T04:08:06.356Z,8.6
2022-12-24T04:09:06.349Z,8.7
2022-12-24T04:10:05.794Z,8.7
2022-12-24T04:11:13.470Z,8.7
2022-12-24T04:12:05.699Z,8.7
2022-12-24T04:13:06.255Z,8.7
2022-12-24T04:14:05.834Z,8.7
2022-12-24T04:15:06.393Z,8.7
2022-12-24T04:16:04.985Z,8.7
2022-12-24T04:17:06.571Z,8.7
2022-12-24T04:18:05.674Z,9
2022-12-24T04:19:05.701Z,8.7
2022-12-24T04:20:06.225Z,8.6
2022-12-24T04:21:05.768Z,8.6
2022-12-24T04:22:06.355Z,8.7
2022-12-24T04:23:05.918Z,8.7
2022-12-24T04:24:06.386Z,8.7
2022-12-24T04:25:05.983Z,8.7
2022-12-24T04:26:05.653Z,8.6
2022-12-24T04:27:06.146Z,8.6
2022-12-24T04:28:06.084Z,8.6
2022-12-24T04:29:05.154Z,8.6
2022-12-24T04:30:05.760Z,9
2022-12-24T04:31:06.148Z,9
2022-12-24T04:32:06.102Z,9
2022-12-24T04:33:06.215Z,8.6
2022-12-24T04:34:05.805Z,8.6
2022-12-24T04:35:06.265Z,8.6
2022-12-24T04:36:05.860Z,8.5
2022-12-24T04:37:05.506Z,8.5
2022-12-24T04:38:05.862Z,8.5
2022-12-24T04:39:06.251Z,8.5
2022-12-24T04:40:05.939Z,8.5
2022-12-24T04:41:05.464Z,8.4
2022-12-24T04:42:05.974Z,8.4
2022-12-24T04:43:06.341Z,8.4
2022-12-24T04:44:05.601Z,9
2022-12-24T04:45:05.793Z,8.4
2022-12-24T04:46:06.858Z,8.4
2022-12-24T04:47:06.198Z,8.4
2022-12-24T04:48:05.749Z,8.4
2022-12-24T04:49:06.021Z,8.4
2022-12-24T04:50:05.580Z,8.3
2022-12-24T04:51:05.991Z,8.3
2022-12-24T04:52:05.886Z,8.2
2022-12-24T04:53:06.430Z,8.3
2022-12-24T04:54:04.689Z,8.3
2022-12-24T04:55:06.660Z,8.2
2022-12-24T04:56:06.027Z,8.2
2022-12-24T04:57:05.652Z,8.2
2022-12-24T04:58:06.152Z,8.2
2022-12-24T04:59:05.958Z,8.1
2022-12-24T05:00:06.516Z,9
2022-12-24T05:01:06.651Z,8.1
2022-12-24T05:02:06.356Z,8
2022-12-24T05:03:06.746Z,8
2022-12-24T05:04:06.035Z,8.1
2022-12-24T05:05:04.878Z,8
2022-12-24T05:06:05.854Z,8
2022-12-24T05:07:05.763Z,8
2022-12-24T05:08:06.140Z,8
2022-12-24T05:09:06.245Z,8
2022-12-24T05:10:05.887Z,8
2022-12-24T05:11:06.455Z,8
2022-12-24T05:12:05.886Z,8
2022-12-24T05:13:06.342Z,8
2022-12-24T05:14:06.349Z,8
2022-12-24T05:15:05.992Z,8
2022-12-24T05:16:05.136Z,8
2022-12-24T05:17:05.439Z,8
2022-12-24T05:18:05.953Z,8
2022-12-24T05:19:05.945Z,8
2022-12-24T05:20:06.290Z,8
2022-12-24T05:21:05.804Z,8
2022-12-24T05:22:06.198Z,8
2022-12-24T05:23:05.971Z,8
2022-12-24T05:24:05.585Z,8
2022-12-24T05:25:06.108Z,8
2022-12-24T05:26:05.678Z,8
2022-12-24T05:27:06.435Z,8
2022-12-24T05:28:06.035Z,8
2022-12-24T05:29:06.465Z,8
2022-12-24T05:30:04.876Z,8
2022-12-24T05:31:06.848Z,8
2022-12-24T05:32:06.009Z,8
2022-12-24T05:33:05.626Z,8
2022-12-24T05:34:06.263Z,8
2022-12-24T05:35:06.216Z,8
2022-12-24T05:36:05.582Z,8
2022-12-24T05:37:06.369Z,8
2022-12-24T05:38:05.749Z,8
2022-12-24T05:39:15.302Z,7.9
2022-12-24T05:40:06.093Z,7.9
2022-12-24T05:41:04.886Z,7.9
2022-12-24T05:42:04.787Z,7.9
2022-12-24T05:43:06.373Z,7.8
2022-12-24T05:44:06.460Z,7.8
2022-12-24T05:45:06.464Z,7.8
2022-12-24T05:46:06.703Z,7.9
2022-12-24T05:47:06.045Z,7.8
2022-12-24T05:48:06.110Z,7.9
2022-12-24T05:49:06.191Z,7.8
2022-12-24T05:50:06.176Z,7.8
2022-12-24T05:51:05.705Z,7.8
2022-12-24T05:52:06.220Z,8
2022-12-24T05:53:05.939Z,7.8
2022-12-24T05:54:05.772Z,7.8
2022-12-24T05:55:06.140Z,7.8
2022-12-24T05:56:05.583Z,8
2022-12-24T05:57:06.475Z,8
2022-12-24T05:58:06.016Z,7.8
2022-12-24T05:59:06.220Z,7.8
2022-12-24T06:00:05.857Z,7.8
2022-12-24T06:01:06.312Z,7.8
2022-12-24T06:02:05.872Z,7.8
2022-12-24T06:03:06.516Z,7.8
2022-12-24T06:04:05.943Z,8
2022-12-24T06:05:05.138Z,8
2022-12-24T06:06:06.274Z,7.8
2022-12-24T06:07:05.780Z,7.8
2022-12-24T06:08:06.400Z,7.7
2022-12-24T06:09:06.028Z,7.7
2022-12-24T06:10:06.471Z,7.8
2022-12-24T06:11:06.416Z,7.8
2022-12-24T06:12:06.140Z,7.7
2022-12-24T06:13:05.885Z,7.8
2022-12-24T06:14:06.528Z,7.8
2022-12-24T06:15:05.959Z,7.8
2022-12-24T06:16:06.680Z,8
2022-12-24T06:17:05.508Z,7.8
2022-12-24T06:18:05.087Z,9
2022-12-24T06:19:05.880Z,7.8
2022-12-24T06:20:06.313Z,7.8
2022-12-24T06:21:05.976Z,7.8
2022-12-24T06:22:06.577Z,7.8
2022-12-24T06:23:06.092Z,7.8
2022-12-24T06:24:05.664Z,7.8
2022-12-24T06:25:06.124Z,7.8
2022-12-24T06:26:05.643Z,7.8
2022-12-24T06:27:05.907Z,7.8
2022-12-24T06:28:06.642Z,7.8
2022-12-24T06:29:05.711Z,7.8
2022-12-24T06:30:06.454Z,7.8
2022-12-24T06:31:07.934Z,7.8
2022-12-24T06:32:05.570Z,7.8
2022-12-24T06:33:05.856Z,7.8
2022-12-24T06:34:06.285Z,7.8
2022-12-24T06:35:06.006Z,7.8
2022-12-24T06:36:05.782Z,7.9
2022-12-24T06:37:06.153Z,7.9
2022-12-24T06:38:05.545Z,7.9
2022-12-24T06:39:06.286Z,7.9
2022-12-24T06:40:06.004Z,7.9
2022-12-24T06:41:06.214Z,7.9
2022-12-24T06:42:05.973Z,7.9
2022-12-24T06:43:05.900Z,7.9
2022-12-24T06:44:06.137Z,7.9
2022-12-24T06:45:12.353Z,7.9
2022-12-24T06:46:06.368Z,7.9
2022-12-24T06:47:05.827Z,7.9
2022-12-24T06:48:06.231Z,7.9
2022-12-24T06:49:05.602Z,7.9
2022-12-24T06:50:06.204Z,7.9
2022-12-24T06:51:05.798Z,7.9
2022-12-24T06:52:06.442Z,8
2022-12-24T06:53:05.954Z,7.9
2022-12-24T06:54:06.142Z,7.9
2022-12-24T06:55:04.921Z,7.8
2022-12-24T06:56:06.498Z,7.9
2022-12-24T06:57:06.148Z,7.9
2022-12-24T06:58:06.522Z,7.8
2022-12-24T06:59:09.897Z,7.8
2022-12-24T07:00:05.991Z,7.8
2022-12-24T07:01:06.592Z,7.8
2022-12-24T07:02:06.327Z,7.8
2022-12-24T07:03:06.478Z,8
2022-12-24T07:04:06.032Z,7.8
2022-12-24T07:05:06.348Z,7.8
2022-12-24T07:06:05.049Z,7.8
2022-12-24T07:07:06.029Z,7.8
2022-12-24T07:08:06.382Z,7.8
2022-12-24T07:09:05.970Z,7.8
2022-12-24T07:10:05.855Z,7.8
2022-12-24T07:11:06.188Z,7.7
2022-12-24T07:12:06.500Z,7.7
2022-12-24T07:13:05.896Z,7.7
2022-12-24T07:14:06.517Z,7.7
2022-12-24T07:15:06.126Z,7.7
2022-12-24T07:16:06.407Z,7.7
2022-12-24T07:17:06.193Z,8
2022-12-24T07:18:04.856Z,8
2022-12-24T07:19:05.788Z,7.7
2022-12-24T07:20:06.034Z,7.7
2022-12-24T07:21:06.043Z,7.7
2022-12-24T07:22:09.017Z,8
2022-12-24T07:23:06.487Z,8
2022-12-24T07:24:06.040Z,7.8
2022-12-24T07:25:06.403Z,7.8
2022-12-24T07:26:06.220Z,8
2022-12-24T07:27:06.009Z,8
2022-12-24T07:28:06.176Z,8
2022-12-24T07:29:05.730Z,7.8
2022-12-24T07:30:06.005Z,7.8
2022-12-24T07:31:05.908Z,8
2022-12-24T07:32:06.513Z,8
2022-12-24T07:33:05.903Z,7.8
2022-12-24T07:34:06.055Z,7.8
2022-12-24T07:35:05.779Z,7.8
2022-12-24T07:36:06.215Z,7.8
2022-12-24T07:37:05.743Z,7.9
2022-12-24T07:38:05.596Z,7.9
2022-12-24T07:39:06.194Z,7.9
2022-12-24T07:40:05.600Z,7.9
2022-12-24T07:41:05.678Z,7.9
2022-12-24T07:42:05.857Z,7.9
2022-12-24T07:43:06.647Z,7.9
2022-12-24T07:44:06.092Z,7.9
2022-12-24T07:45:05.769Z,7.9
2022-12-24T07:46:06.454Z,7.9
2022-12-24T07:47:06.058Z,7.9
2022-12-24T07:48:06.251Z,8
2022-12-24T07:49:06.502Z,8
2022-12-24T07:50:05.966Z,8
2022-12-24T07:51:05.703Z,8
2022-12-24T07:52:05.756Z,7.9
2022-12-24T07:53:06.430Z,8
2022-12-24T07:54:06.575Z,8
2022-12-24T07:55:06.014Z,8
2022-12-24T07:56:12.835Z,8
2022-12-24T07:57:05.887Z,8
2022-12-24T07:58:05.834Z,8
2022-12-24T07:59:06.435Z,8
2022-12-24T08:00:06.121Z,8
2022-12-24T08:01:06.760Z,8
2022-12-24T08:02:08.036Z,8
2022-12-24T08:03:06.143Z,8
2022-12-24T08:04:06.474Z,8
2022-12-24T08:05:04.894Z,8
2022-12-24T08:06:06.593Z,8
2022-12-24T08:07:06.349Z,8
2022-12-24T08:08:05.821Z,8
2022-12-24T08:09:05.893Z,8
2022-12-24T08:10:06.377Z,8
2022-12-24T08:11:06.182Z,8
2022-12-24T08:12:05.897Z,8
2022-12-24T08:13:06.087Z,8
2022-12-24T08:14:06.483Z,8
2022-12-24T08:15:06.594Z,8
2022-12-24T08:16:06.656Z,8
2022-12-24T08:17:06.260Z,8
2022-12-24T08:18:06.218Z,8
2022-12-24T08:19:06.080Z,8
2022-12-24T08:20:06.081Z,8
2022-12-24T08:21:05.675Z,8
2022-12-24T08:22:06.189Z,8
2022-12-24T08:23:05.700Z,8
2022-12-24T08:24:06.294Z,8
2022-12-24T08:25:05.815Z,8
2022-12-24T08:26:05.898Z,8
2022-12-24T08:27:06.534Z,8
2022-12-24T08:28:04.923Z,8
2022-12-24T08:29:06.464Z,8
2022-12-24T08:30:06.077Z,8
2022-12-24T08:31:06.150Z,8
2022-12-24T08:32:06.734Z,8
2022-12-24T08:33:06.173Z,8
2022-12-24T08:34:05.670Z,8
2022-12-24T08:35:06.031Z,8
2022-12-24T08:36:05.639Z,8
2022-12-24T08:37:06.069Z,8
2022-12-24T08:38:05.731Z,8
2022-12-24T08:39:06.529Z,8
2022-12-24T08:40:05.730Z,8
2022-12-24T08:41:05.949Z,8
2022-12-24T08:42:06.183Z,8
2022-12-24T08:43:05.804Z,8
2022-12-24T08:44:05.777Z,8
2022-12-24T08:45:06.245Z,8
2022-12-24T08:46:06.141Z,8
2022-12-24T08:47:05.910Z,8
2022-12-24T08:48:06.377Z,8
2022-12-24T08:49:05.941Z,8
2022-12-24T08:50:06.245Z,8
2022-12-24T08:51:05.702Z,8
2022-12-24T08:52:05.894Z,8
2022-12-24T08:53:06.143Z,8
2022-12-24T08:54:05.649Z,8
2022-12-24T08:55:06.286Z,8
2022-12-24T08:56:05.762Z,8
2022-12-24T08:57:06.444Z,8
2022-12-24T08:58:06.138Z,8.1
2022-12-24T08:59:05.659Z,8.1
2022-12-24T09:00:06.254Z,8.1
2022-12-24T09:01:06.695Z,8
2022-12-24T09:02:06.418Z,8.2
2022-12-24T09:03:06.519Z,8.2
2022-12-24T09:04:04.727Z,8.2
2022-12-24T09:05:04.897Z,8.2
2022-12-24T09:06:05.971Z,8.2
2022-12-24T09:07:06.201Z,8.2
2022-12-24T09:08:05.591Z,8.2
2022-12-24T09:09:06.098Z,8
2022-12-24T09:10:06.416Z,8.2
2022-12-24T09:11:06.546Z,8
2022-12-24T09:12:06.125Z,8
2022-12-24T09:13:06.622Z,8
2022-12-24T09:14:06.204Z,8.2
2022-12-24T09:15:08.527Z,8.2
2022-12-24T09:16:06.662Z,8.3
2022-12-24T09:17:06.014Z,8.2
2022-12-24T09:18:05.889Z,8.2
2022-12-24T09:19:06.611Z,8.3
2022-12-24T09:20:05.942Z,8.3
2022-12-24T09:21:05.835Z,8.3
2022-12-24T09:22:06.610Z,8.3
2022-12-24T09:23:06.075Z,8.3
2022-12-24T09:24:05.771Z,8.4
2022-12-24T09:25:06.390Z,8.4
2022-12-24T09:26:05.946Z,8.4
2022-12-24T09:27:05.691Z,8
2022-12-24T09:28:04.770Z,8.4
2022-12-24T09:29:06.133Z,8.4
2022-12-24T09:30:05.783Z,8.4
2022-12-24T09:31:05.917Z,8.4
2022-12-24T09:32:06.214Z,8.4
2022-12-24T09:33:05.718Z,8.4
2022-12-24T09:34:06.231Z,8.5
2022-12-24T09:35:05.732Z,8.5
2022-12-24T09:36:06.239Z,9
2022-12-24T09:37:06.543Z,8.6
2022-12-24T09:38:06.061Z,8.6
2022-12-24T09:39:06.036Z,8.8
2022-12-24T09:40:05.450Z,8.8
2022-12-24T09:41:12.891Z,8.8
2022-12-24T09:42:05.896Z,8.9
2022-12-24T09:43:06.467Z,8.9
2022-12-24T09:44:05.885Z,8.9
2022-12-24T09:45:06.510Z,9
2022-12-24T09:46:05.994Z,9.2
2022-12-24T09:47:13.880Z,9.2
2022-12-24T09:48:06.503Z,9.3
2022-12-24T09:49:06.006Z,9.5
2022-12-24T09:50:06.429Z,9.4
2022-12-24T09:51:06.049Z,9.5
2022-12-24T09:52:05.572Z,9.6
2022-12-24T09:53:06.139Z,9.6
2022-12-24T09:54:05.610Z,9
2022-12-24T09:55:06.001Z,9.5
2022-12-24T09:56:06.593Z,9.5
2022-12-24T09:57:06.082Z,9.5
2022-12-24T09:58:05.676Z,9.5
2022-12-24T09:59:06.099Z,9.6
2022-12-24T10:00:05.730Z,9.6
2022-12-24T10:01:06.925Z,9.6
2022-12-24T10:02:06.596Z,9.6
2022-12-24T10:03:06.493Z,9.6
2022-12-24T10:04:05.751Z,9.5
2022-12-24T10:05:04.782Z,9.5
2022-12-24T10:06:06.199Z,9.5
2022-12-24T10:07:06.436Z,9.5
2022-12-24T10:08:05.730Z,9.6
2022-12-24T10:09:06.240Z,9.6
2022-12-24T10:10:06.482Z,9.6
2022-12-24T10:11:05.967Z,9.6
2022-12-24T10:12:06.414Z,9.6
2022-12-24T10:13:05.923Z,9.6
2022-12-24T10:14:05.602Z,9.6
2022-12-24T10:15:06.083Z,9
2022-12-24T10:16:05.030Z,9.7
2022-12-24T10:17:05.895Z,9.7
2022-12-24T10:18:06.169Z,9.7
2022-12-24T10:19:05.630Z,9.6
2022-12-24T10:20:05.862Z,9.8
2022-12-24T10:21:06.224Z,9.7
2022-12-24T10:22:06.241Z,9.7
2022-12-24T10:23:05.790Z,9.8
2022-12-24T10:24:06.361Z,9.8
2022-12-24T10:25:05.817Z,9.8
2022-12-24T10:26:06.275Z,10
2022-12-24T10:27:06.135Z,10
2022-12-24T10:28:05.693Z,10
2022-12-24T10:29:06.195Z,10.1
2022-12-24T10:30:07.483Z,10.2
2022-12-24T10:31:06.206Z,10.4
2022-12-24T10:32:05.525Z,10.5
2022-12-24T10:33:06.078Z,10.5
2022-12-24T10:34:05.588Z,10.8
2022-12-24T10:35:05.764Z,10.9
2022-12-24T10:36:14.675Z,11
2022-12-24T10:37:05.927Z,11.1
2022-12-24T10:38:06.446Z,11.2
2022-12-24T10:39:05.933Z,11.4
2022-12-24T10:40:06.434Z,11.3
2022-12-24T10:41:05.974Z,11.3
2022-12-24T10:42:06.059Z,11.3
2022-12-24T10:43:05.816Z,10
2022-12-24T10:44:05.656Z,11.2
2022-12-24T10:45:06.197Z,11.2
2022-12-24T10:46:06.350Z,11.2
2022-12-24T10:47:06.571Z,11
2022-12-24T10:48:06.104Z,11
2022-12-24T10:49:05.688Z,11
2022-12-24T10:50:06.146Z,10.9
2022-12-24T10:51:04.649Z,10.9
2022-12-24T10:52:06.104Z,10.8
2022-12-24T10:53:05.793Z,10.8
2022-12-24T10:54:06.380Z,10.8
2022-12-24T10:55:06.098Z,10.8
2022-12-24T10:56:05.966Z,10.7
2022-12-24T10:57:06.408Z,10.7
2022-12-24T10:58:06.097Z,10.7
2022-12-24T10:59:06.584Z,10
2022-12-24T11:00:06.064Z,10.8
2022-12-24T11:01:07.031Z,10.8
2022-12-24T11:02:06.711Z,10.8
2022-12-24T11:03:07.082Z,10.8
2022-12-24T11:04:06.061Z,10.8
2022-12-24T11:05:06.160Z,10.8
2022-12-24T11:06:05.764Z,10.8
2022-12-24T11:07:06.444Z,10.9
2022-12-24T11:08:06.027Z,10.9
2022-12-24T11:09:06.600Z,11.1
2022-12-24T11:10:06.145Z,11.2
2022-12-24T11:11:05.754Z,11.2
2022-12-24T11:12:12.897Z,11.2
2022-12-24T11:13:41.748Z,11.3
2022-12-24T11:15:05.618Z,11.4
2022-12-24T11:16:06.649Z,11.4
2022-12-24T11:17:05.676Z,11.4
2022-12-24T11:18:06.177Z,11.3
2022-12-24T11:19:05.687Z,11.4
2022-12-24T11:20:06.291Z,11.4
2022-12-24T11:21:05.714Z,11.4
2022-12-24T11:22:06.142Z,11.4
2022-12-24T11:23:05.499Z,11
2022-12-24T11:24:06.146Z,11.7
2022-12-24T11:25:05.949Z,11.8
2022-12-24T11:26:06.456Z,11.9
2022-12-24T11:27:06.215Z,11.9
2022-12-24T11:28:05.709Z,12
2022-12-24T11:29:06.351Z,12.1
2022-12-24T11:30:14.267Z,12.1
2022-12-24T11:31:06.558Z,12.2
2022-12-24T11:32:06.365Z,12.3
2022-12-24T11:33:05.791Z,12.4
2022-12-24T11:34:06.296Z,12.4
2022-12-24T11:35:05.760Z,12.5
2022-12-24T11:36:06.059Z,11
2022-12-24T11:37:09.176Z,11
2022-12-24T11:38:04.676Z,12.5
2022-12-24T11:39:06.373Z,12.6
2022-12-24T11:40:06.073Z,12.6
2022-12-24T11:41:06.537Z,12.6
2022-12-24T11:42:06.149Z,12.6
2022-12-24T11:43:11.031Z,12.6
2022-12-24T11:44:05.671Z,11
2022-12-24T11:45:05.919Z,12.6
2022-12-24T11:46:06.415Z,11
2022-12-24T11:47:05.910Z,12.6
2022-12-24T11:48:06.272Z,12.6
2022-12-24T11:49:11.984Z,12.6
2022-12-24T11:50:24.812Z,12.6
2022-12-24T11:51:06.377Z,12.7
2022-12-24T11:52:06.459Z,12.7
2022-12-24T11:53:06.381Z,12.7
2022-12-24T11:54:05.908Z,12.7
2022-12-24T11:55:08.996Z,12.7
2022-12-24T11:56:06.304Z,12.8
2022-12-24T11:57:05.860Z,12.8
2022-12-24T11:58:06.419Z,12.8
2022-12-24T11:59:05.956Z,12.8
2022-12-24T12:00:06.408Z,12.8
2022-12-24T12:01:08.735Z,12.8
2022-12-24T12:02:05.249Z,12.8
2022-12-24T12:03:06.198Z,12.8
2022-12-24T12:04:06.819Z,11
2022-12-24T12:05:05.791Z,12.9
2022-12-24T12:06:05.881Z,12.9
2022-12-24T12:07:14.946Z,13
2022-12-24T12:08:06.129Z,13
2022-12-24T12:09:05.753Z,11
2022-12-24T12:10:06.083Z,13
2022-12-24T12:11:05.639Z,13
2022-12-24T12:12:06.213Z,13
2022-12-24T12:13:09.873Z,13
2022-12-24T12:14:06.251Z,13
2022-12-24T12:15:05.781Z,12.9
2022-12-24T12:16:06.738Z,12.9
2022-12-24T12:17:05.929Z,12.9
2022-12-24T12:18:06.409Z,12.9
2022-12-24T12:19:11.463Z,12.9
2022-12-24T12:20:06.314Z,12.8
2022-12-24T12:21:06.276Z,12.8
2022-12-24T12:22:05.950Z,12.8
2022-12-24T12:23:06.324Z,12.6
2022-12-24T12:24:05.940Z,12.7
2022-12-24T12:25:06.387Z,12.5
2022-12-24T12:26:06.497Z,12.5
2022-12-24T12:27:06.152Z,12.4
2022-12-24T12:28:05.730Z,11
2022-12-24T12:29:06.023Z,12.3
2022-12-24T12:30:06.253Z,12.3
2022-12-24T12:31:13.921Z,12.3
2022-12-24T12:32:06.631Z,12.3
2022-12-24T12:33:06.110Z,12.3
2022-12-24T12:34:05.834Z,12.3
2022-12-24T12:35:06.341Z,12.3
2022-12-24T12:36:05.813Z,12.4
2022-12-24T12:37:07.311Z,12.4
2022-12-24T12:38:06.285Z,12.4
2022-12-24T12:39:05.988Z,12.4
2022-12-24T12:40:06.317Z,12.5
2022-12-24T12:41:06.245Z,12.5
2022-12-24T12:42:05.855Z,12.5
2022-12-24T12:43:13.969Z,12.5
2022-12-24T12:44:06.326Z,11
2022-12-24T12:45:05.751Z,12.6
2022-12-24T12:46:05.904Z,12.6
2022-12-24T12:47:06.404Z,12.6
2022-12-24T12:48:05.850Z,12.5
2022-12-24T12:49:07.426Z,12.5
2022-12-24T12:50:05.870Z,12.5
2022-12-24T12:51:05.953Z,12.5
2022-12-24T12:52:05.653Z,11
2022-12-24T12:53:06.020Z,12.5
2022-12-24T12:54:06.157Z,12.5
2022-12-24T12:55:05.709Z,12.5
2022-12-24T12:56:06.156Z,12.6
2022-12-24T12:57:05.728Z,12.6
2022-12-24T12:58:06.234Z,12.6
2022-12-24T12:59:05.792Z,12.6
2022-12-24T13:00:06.177Z,12.5
2022-12-24T13:01:04.901Z,12.5
2022-12-24T13:02:07.199Z,12.4
2022-12-24T13:03:06.335Z,12.5
2022-12-24T13:04:06.285Z,12.4
2022-12-24T13:05:06.040Z,12.4
2022-12-24T13:06:06.676Z,12.3
2022-12-24T13:07:05.936Z,12.3
2022-12-24T13:08:06.515Z,12.2
2022-12-24T13:09:05.862Z,12.2
2022-12-24T13:10:06.562Z,12.1
2022-12-24T13:11:06.115Z,12.1
2022-12-24T13:12:04.801Z,12
2022-12-24T13:13:06.245Z,12
2022-12-24T13:14:05.836Z,12
2022-12-24T13:15:06.443Z,11.8
2022-12-24T13:16:06.419Z,11.9
2022-12-24T13:17:05.618Z,11.8
2022-12-24T13:18:06.331Z,11.8
2022-12-24T13:19:06.257Z,11.8
2022-12-24T13:20:05.711Z,11.7
2022-12-24T13:21:06.394Z,11.7
2022-12-24T13:22:06.113Z,11.6
2022-12-24T13:23:05.694Z,11.6
2022-12-24T13:24:06.162Z,11.6
2022-12-24T13:25:05.765Z,11.6
2022-12-24T13:26:05.581Z,11.5
2022-12-24T13:27:06.240Z,11.4
2022-12-24T13:28:05.662Z,11.4
2022-12-24T13:29:06.191Z,11.4
2022-12-24T13:30:13.917Z,11.3
2022-12-24T13:31:05.946Z,11.3
2022-12-24T13:32:06.638Z,11
2022-12-24T13:33:06.039Z,11.2
2022-12-24T13:34:06.502Z,11.2
2022-12-24T13:35:06.280Z,11.2
2022-12-24T13:36:06.268Z,11.2
2022-12-24T13:37:05.839Z,11.1
2022-12-24T13:38:06.533Z,11.1
2022-12-24T13:39:06.297Z,11.1
2022-12-24T13:40:05.851Z,11.1
2022-12-24T13:41:06.299Z,11.1
2022-12-24T13:42:05.816Z,11.1
2022-12-24T13:43:06.508Z,11.1
2022-12-24T13:44:05.959Z,11
2022-12-24T13:45:05.836Z,11
2022-12-24T13:46:06.550Z,11
2022-12-24T13:47:05.798Z,11
2022-12-24T13:48:05.615Z,11
2022-12-24T13:49:06.138Z,11
2022-12-24T13:50:05.682Z,10
2022-12-24T13:51:06.261Z,10
2022-12-24T13:52:05.853Z,11
2022-12-24T13:53:06.372Z,11
2022-12-24T13:54:06.018Z,11